createdAt,value
2023-01-22T00:04:25.063Z,-0.39
2023-01-22T00:09:57.230Z,-0.42
2023-01-22T00:15:28.508Z,-0.33
2023-01-22T00:21:00.228Z,-0.38
2023-01-22T00:26:31.933Z,-0.39
2023-01-22T00:32:03.943Z,-0.24
2023-01-22T00:37:35.389Z,-0.27
2023-01-22T00:43:07.097Z,-0.18
2023-01-22T00:48:45.458Z,-0.09
2023-01-22T00:54:16.953Z,-0.13
2023-01-22T00:59:49.265Z,-0.25
2023-01-22T01:05:20.561Z,0.04
2023-01-22T01:10:52.286Z,0.1
2023-01-22T01:16:24.083Z,-0.09
2023-01-22T01:21:55.775Z,-0.24
2023-01-22T01:27:27.510Z,-0.31
2023-01-22T01:32:59.151Z,-0.23
2023-01-22T01:38:30.879Z,-0.09
2023-01-22T01:44:02.466Z,-0.12
2023-01-22T01:49:38.799Z,-0.04
2023-01-22T01:55:10.568Z,0.24
2023-01-22T02:00:43.357Z,-0.01
2023-01-22T02:06:19.498Z,-0.02
2023-01-22T02:11:45.621Z,0.05
2023-01-22T02:17:17.397Z,0.09
2023-01-22T02:22:49.000Z,0.27
2023-01-22T02:28:20.816Z,0.25
2023-01-22T02:33:52.400Z,0.22
2023-01-22T02:39:24.133Z,0.34
2023-01-22T02:44:56.015Z,0.3
2023-01-22T02:50:31.981Z,0.37
2023-01-22T02:56:03.972Z,0.32
2023-01-22T03:01:35.424Z,0.29
2023-01-22T03:07:07.188Z,0.49
2023-01-22T03:12:39.025Z,0.31
2023-01-22T03:18:10.607Z,0.24
2023-01-22T03:23:42.404Z,0.55
2023-01-22T03:29:14.148Z,0.29
2023-01-22T03:34:45.936Z,0.27
2023-01-22T03:40:17.759Z,0.26
2023-01-22T03:45:49.345Z,0.2
2023-01-22T03:51:27.346Z,0.36
2023-01-22T03:56:59.067Z,0.35
2023-01-22T04:02:30.970Z,0.44
2023-01-22T04:08:02.646Z,0.33
2023-01-22T04:13:34.240Z,0.3
2023-01-22T04:19:06.093Z,0.27
2023-01-22T04:24:37.780Z,0.36
2023-01-22T04:30:09.352Z,0.31
2023-01-22T04:35:41.113Z,0.52
2023-01-22T04:41:12.843Z,0.4
2023-01-22T04:46:44.595Z,0.42
2023-01-22T04:52:22.967Z,0.53
2023-01-22T04:57:56.068Z,0.29
2023-01-22T05:03:26.181Z,0.38
2023-01-22T05:08:57.904Z,0.29
2023-01-22T05:14:29.751Z,0.27
2023-01-22T05:20:01.964Z,0.43
2023-01-22T05:25:33.228Z,0.43
2023-01-22T05:31:04.926Z,0.55
2023-01-22T05:36:36.498Z,0.36
2023-01-22T05:42:08.229Z,0.24
2023-01-22T05:47:39.983Z,0.55
2023-01-22T05:53:18.237Z,0.98
2023-01-22T05:58:49.917Z,1.15
2023-01-22T06:04:21.455Z,1.05
2023-01-22T06:09:53.236Z,1.31
2023-01-22T06:15:24.935Z,1.32
2023-01-22T06:20:56.655Z,1.09
2023-01-22T06:26:28.358Z,1.16
2023-01-22T06:32:00.282Z,1.15
2023-01-22T06:37:31.804Z,1.25
2023-01-22T06:43:03.707Z,1.32
2023-01-22T06:48:35.290Z,1.43
2023-01-22T06:54:11.417Z,1.45
2023-01-22T06:59:43.258Z,1.35
2023-01-22T07:05:15.015Z,1.5
2023-01-22T07:10:46.764Z,1.62
2023-01-22T07:16:18.648Z,1.69
2023-01-22T07:21:50.022Z,1.76
2023-01-22T07:27:21.947Z,1.84
2023-01-22T07:32:53.688Z,1.84
2023-01-22T07:38:25.397Z,1.84
2023-01-22T07:43:56.960Z,1.86
2023-01-22T07:49:28.913Z,1.93
2023-01-22T07:55:04.800Z,1.88
2023-01-22T08:00:36.820Z,1.92
2023-01-22T08:06:08.616Z,1.93
2023-01-22T08:11:40.013Z,1.98
2023-01-22T08:17:11.905Z,1.67
2023-01-22T08:22:43.363Z,1.52
2023-01-22T08:28:15.230Z,1.67
2023-01-22T08:33:46.877Z,1.65
2023-01-22T08:39:18.761Z,1.66
2023-01-22T08:44:50.306Z,1.36
2023-01-22T08:50:22.021Z,1.18
2023-01-22T08:55:58.193Z,1.16
2023-01-22T09:01:29.895Z,1.42
2023-01-22T09:07:01.829Z,1.22
2023-01-22T09:12:33.584Z,1.64
2023-01-22T09:18:05.091Z,1.66
2023-01-22T09:23:37.292Z,1.74
2023-01-22T09:29:08.699Z,1.78
2023-01-22T09:34:40.483Z,1.37
2023-01-22T09:40:11.993Z,1.24
2023-01-22T09:45:43.906Z,1.57
2023-01-22T09:51:15.507Z,1.2
2023-01-22T09:56:51.560Z,1.32
2023-01-22T10:02:23.324Z,1.23
2023-01-22T10:07:55.005Z,1.25
2023-01-22T10:13:26.724Z,1.31
2023-01-22T10:18:58.450Z,1.46
2023-01-22T10:24:30.258Z,1.77
2023-01-22T10:30:01.989Z,1.98
2023-01-22T10:35:33.867Z,2.04
2023-01-22T10:41:05.464Z,2.27
2023-01-22T10:46:37.521Z,2.55
2023-01-22T10:52:09.103Z,2.52
2023-01-22T10:57:47.433Z,2.79
2023-01-22T11:03:18.927Z,2.9
2023-01-22T11:08:51.071Z,2.92
2023-01-22T11:14:22.524Z,2.94
2023-01-22T11:19:54.280Z,2.98
2023-01-22T11:25:26.035Z,2.92
2023-01-22T11:30:57.822Z,2.95
2023-01-22T11:36:29.307Z,2.94
2023-01-22T11:42:01.018Z,3.1
2023-01-22T11:47:32.891Z,3.25
2023-01-22T11:53:04.662Z,3.28
2023-01-22T11:58:40.659Z,2.94
2023-01-22T12:04:12.386Z,3.28
2023-01-22T12:09:44.531Z,3.28
2023-01-22T12:15:16.050Z,3.16
2023-01-22T12:20:47.792Z,3.21
2023-01-22T12:26:19.900Z,3.4
2023-01-22T12:31:51.570Z,3.21
2023-01-22T12:37:23.001Z,3.25
2023-01-22T12:42:54.721Z,3.52
2023-01-22T12:48:27.052Z,3.54
2023-01-22T12:53:58.865Z,3.58
2023-01-22T12:59:34.839Z,3.59
2023-01-22T13:05:06.957Z,3.47
2023-01-22T13:10:38.519Z,3.49
2023-01-22T13:16:10.036Z,3.28
2023-01-22T13:21:41.901Z,3.54
2023-01-22T13:27:13.617Z,3.19
2023-01-22T13:32:45.169Z,3.31
2023-01-22T13:38:16.872Z,3.21
2023-01-22T13:43:48.798Z,3.43
2023-01-22T13:49:20.553Z,3.56
2023-01-22T13:54:52.279Z,3.52
2023-01-22T14:00:30.281Z,3.55
2023-01-22T14:06:02.112Z,3.56
2023-01-22T14:11:33.648Z,3.44
2023-01-22T14:17:05.388Z,3.27
2023-01-22T14:22:37.459Z,3.47
2023-01-22T14:28:08.836Z,3.42
2023-01-22T14:33:40.756Z,3.29
2023-01-22T14:39:12.729Z,3.38
2023-01-22T14:44:44.196Z,3.49
2023-01-22T14:50:16.088Z,3.58
2023-01-22T14:55:47.486Z,3.61
2023-01-22T15:01:25.798Z,3.6
2023-01-22T15:06:57.329Z,3.58
2023-01-22T15:12:29.396Z,3.59
2023-01-22T15:18:00.777Z,3.54
2023-01-22T15:23:32.501Z,3.54
2023-01-22T15:29:04.196Z,3.54
2023-01-22T15:34:36.135Z,3.56
2023-01-22T15:40:07.884Z,3.51
2023-01-22T15:45:39.624Z,3.42
2023-01-22T15:51:11.255Z,3.38
2023-01-22T15:56:42.768Z,3.4
2023-01-22T16:02:21.121Z,3.4
2023-01-22T16:07:52.933Z,3.37
2023-01-22T16:13:25.208Z,3.36
2023-01-22T16:18:56.075Z,3.28
2023-01-22T16:24:28.138Z,3.28
2023-01-22T16:29:59.565Z,3.3
2023-01-22T16:35:31.296Z,3.27
2023-01-22T16:41:03.553Z,3.26
2023-01-22T16:46:34.731Z,3.24
2023-01-22T16:52:21.021Z,3.23
2023-01-22T16:57:38.392Z,3.21
2023-01-22T17:03:16.340Z,3.21
2023-01-22T17:08:48.085Z,3.21
2023-01-22T17:14:19.947Z,3.19
2023-01-22T17:19:51.533Z,3.14
2023-01-22T17:25:23.480Z,3.21
2023-01-22T17:30:55.206Z,3.13
2023-01-22T17:36:26.649Z,3.2
2023-01-22T17:41:58.676Z,3.18
2023-01-22T17:47:30.091Z,3.16
2023-01-22T17:53:01.848Z,3.16
2023-01-22T17:58:33.784Z,3.19
2023-01-22T18:04:11.865Z,3.15
2023-01-22T18:09:43.508Z,3.16
2023-01-22T18:15:15.347Z,3.11
2023-01-22T18:20:47.089Z,3.15
2023-01-22T18:26:18.592Z,3.11
2023-01-22T18:31:50.355Z,3.09
2023-01-22T18:37:22.186Z,3.12
2023-01-22T18:42:53.972Z,3.09
2023-01-22T18:48:25.512Z,3.04
2023-01-22T18:53:57.446Z,3.05
2023-01-22T18:59:29.062Z,3.13
2023-01-22T19:05:05.410Z,3.11
2023-01-22T19:10:36.992Z,3.14
2023-01-22T19:16:08.550Z,3.11
2023-01-22T19:21:40.446Z,3.11
2023-01-22T19:27:12.159Z,3.1
2023-01-22T19:32:43.688Z,2.94
2023-01-22T19:38:15.451Z,2.99
2023-01-22T19:43:47.307Z,3.08
2023-01-22T19:49:18.932Z,2.95
2023-01-22T19:54:50.778Z,2.98
2023-01-22T20:00:22.544Z,2.93
2023-01-22T20:05:59.411Z,2.8
2023-01-22T20:11:31.367Z,2.76
2023-01-22T20:17:03.240Z,2.79
2023-01-22T20:22:34.607Z,2.84
2023-01-22T20:28:06.425Z,2.88
2023-01-22T20:33:38.472Z,2.94
2023-01-22T20:39:10.259Z,2.97
2023-01-22T20:44:41.381Z,2.94
2023-01-22T20:50:13.259Z,2.94
2023-01-22T20:55:44.811Z,2.75
2023-01-22T21:01:16.744Z,2.83
2023-01-22T21:06:52.659Z,2.85
2023-01-22T21:12:24.661Z,2.85
2023-01-22T21:17:57.187Z,2.92
2023-01-22T21:23:28.311Z,2.83
2023-01-22T21:28:59.794Z,2.88
2023-01-22T21:34:31.744Z,2.79
2023-01-22T21:40:03.233Z,2.77
2023-01-22T21:45:35.274Z,2.77
2023-01-22T21:51:06.825Z,2.79
2023-01-22T21:56:38.779Z,2.77
2023-01-22T22:02:10.757Z,2.77
2023-01-22T22:07:46.686Z,2.74
2023-01-22T22:13:18.139Z,2.65
2023-01-22T22:18:50.080Z,2.57
2023-01-22T22:24:21.627Z,2.56
2023-01-22T22:29:53.641Z,2.53
2023-01-22T22:35:25.273Z,2.56
2023-01-22T22:40:56.900Z,2.58
2023-01-22T22:46:28.580Z,2.63
2023-01-22T22:52:00.686Z,2.48
2023-01-22T22:57:32.004Z,2.65
2023-01-22T23:03:03.740Z,2.69
2023-01-22T23:08:40.053Z,2.68
2023-01-22T23:14:11.593Z,2.63
2023-01-22T23:19:43.289Z,2.65
2023-01-22T23:25:15.008Z,2.6
2023-01-22T23:30:47.007Z,2.67
2023-01-22T23:36:18.479Z,2.61
2023-01-22T23:41:50.202Z,2.57
2023-01-22T23:47:22.031Z,2.71
2023-01-22T23:52:53.641Z,2.68
2023-01-22T23:58:25.349Z,2.71
